sensor_id;sensor_type;location;lat;lon;timestamp;pressure;altitude;pressure_sealevel;temperature;humidity
58769;BME280;44536;47.474;19.056;2023-03-30T00:00:30;101014.34;;;6.11;71.04
58769;BME280;44536;47.474;19.056;2023-03-30T00:03:33;101008.50;;;6.23;70.72
58769;BME280;44536;47.474;19.056;2023-03-30T00:06:40;101006.31;;;6.31;71.26
58769;BME280;44536;47.474;19.056;2023-03-30T00:09:43;101006.16;;;6.35;71.34
58769;BME280;44536;47.474;19.056;2023-03-30T00:12:48;101001.97;;;6.30;71.29
58769;BME280;44536;47.474;19.056;2023-03-30T00:15:54;100997.78;;;6.26;71.85
58769;BME280;44536;47.474;19.056;2023-03-30T00:18:57;100994.94;;;6.31;73.70
58769;BME280;44536;47.474;19.056;2023-03-30T00:21:59;100995.84;;;6.30;74.48
58769;BME280;44536;47.474;19.056;2023-03-30T00:25:02;100994.22;;;6.27;74.35
58769;BME280;44536;47.474;19.056;2023-03-30T00:28:05;101002.03;;;6.48;73.27
58769;BME280;44536;47.474;19.056;2023-03-30T00:31:08;100999.19;;;6.34;73.56
58769;BME280;44536;47.474;19.056;2023-03-30T00:34:15;100996.56;;;6.34;73.29
58769;BME280;44536;47.474;19.056;2023-03-30T00:37:17;100996.78;;;6.29;72.67
58769;BME280;44536;47.474;19.056;2023-03-30T00:40:21;100982.22;;;6.22;72.96
58769;BME280;44536;47.474;19.056;2023-03-30T00:43:25;100988.09;;;6.27;72.60
58769;BME280;44536;47.474;19.056;2023-03-30T00:46:28;100978.12;;;6.34;72.45
58769;BME280;44536;47.474;19.056;2023-03-30T00:49:32;100969.84;;;6.41;72.04
58769;BME280;44536;47.474;19.056;2023-03-30T00:52:37;100964.66;;;6.22;73.23
58769;BME280;44536;47.474;19.056;2023-03-30T00:55:39;100970.84;;;6.39;72.15
58769;BME280;44536;47.474;19.056;2023-03-30T00:58:42;100969.00;;;6.23;70.90
58769;BME280;44536;47.474;19.056;2023-03-30T01:01:45;100970.56;;;6.09;71.48
58769;BME280;44536;47.474;19.056;2023-03-30T01:04:53;100964.47;;;5.89;72.65
58769;BME280;44536;47.474;19.056;2023-03-30T01:07:57;100957.88;;;5.79;73.88
58769;BME280;44536;47.474;19.056;2023-03-30T01:11:01;100950.66;;;5.65;73.89
58769;BME280;44536;47.474;19.056;2023-03-30T01:14:05;100948.16;;;5.62;73.77
58769;BME280;44536;47.474;19.056;2023-03-30T01:17:42;100944.16;;;5.73;72.86
58769;BME280;44536;47.474;19.056;2023-03-30T01:24:35;100936.38;;;5.71;73.52
58769;BME280;44536;47.474;19.056;2023-03-30T01:31:16;100923.00;;;5.57;72.61
58769;BME280;44536;47.474;19.056;2023-03-30T01:34:33;100921.37;;;5.54;72.21
58769;BME280;44536;47.474;19.056;2023-03-30T01:37:50;100913.12;;;5.62;71.79
58769;BME280;44536;47.474;19.056;2023-03-30T01:41:17;100910.19;;;5.49;72.67
58769;BME280;44536;47.474;19.056;2023-03-30T01:44:40;100908.97;;;5.38;72.93
58769;BME280;44536;47.474;19.056;2023-03-30T01:48:00;100911.16;;;5.28;73.48
58769;BME280;44536;47.474;19.056;2023-03-30T01:51:11;100917.94;;;5.15;73.53
58769;BME280;44536;47.474;19.056;2023-03-30T01:54:30;100923.47;;;5.09;73.89
58769;BME280;44536;47.474;19.056;2023-03-30T01:57:52;100919.19;;;5.06;73.71
58769;BME280;44536;47.474;19.056;2023-03-30T02:00:58;100918.28;;;4.87;74.43
58769;BME280;44536;47.474;19.056;2023-03-30T02:04:03;100911.72;;;4.77;76.23
58769;BME280;44536;47.474;19.056;2023-03-30T02:07:14;100907.72;;;4.68;76.14
58769;BME280;44536;47.474;19.056;2023-03-30T02:10:20;100908.91;;;4.61;76.68
58769;BME280;44536;47.474;19.056;2023-03-30T02:13:27;100906.75;;;4.50;78.04
58769;BME280;44536;47.474;19.056;2023-03-30T02:16:47;100908.78;;;4.44;77.66
58769;BME280;44536;47.474;19.056;2023-03-30T02:19:50;100900.72;;;4.26;80.24
58769;BME280;44536;47.474;19.056;2023-03-30T02:22:53;100890.78;;;4.14;81.87
58769;BME280;44536;47.474;19.056;2023-03-30T02:25:56;100894.75;;;4.03;82.41
58769;BME280;44536;47.474;19.056;2023-03-30T02:28:59;100892.44;;;3.95;82.44
58769;BME280;44536;47.474;19.056;2023-03-30T02:32:02;100891.03;;;3.86;82.77
58769;BME280;44536;47.474;19.056;2023-03-30T02:35:18;100887.41;;;3.89;81.38
58769;BME280;44536;47.474;19.056;2023-03-30T02:52:13;100905.16;;;3.82;81.04
58769;BME280;44536;47.474;19.056;2023-03-30T02:59:02;100886.19;;;3.97;81.43
58769;BME280;44536;47.474;19.056;2023-03-30T03:02:11;100885.00;;;4.26;76.84
58769;BME280;44536;47.474;19.056;2023-03-30T03:05:19;100887.97;;;4.39;77.52
58769;BME280;44536;47.474;19.056;2023-03-30T03:08:23;100885.19;;;4.42;77.78
58769;BME280;44536;47.474;19.056;2023-03-30T03:11:26;100898.00;;;4.50;78.48
58769;BME280;44536;47.474;19.056;2023-03-30T03:14:28;100905.56;;;4.57;76.07
58769;BME280;44536;47.474;19.056;2023-03-30T03:17:32;100905.09;;;4.68;76.17
58769;BME280;44536;47.474;19.056;2023-03-30T03:20:38;100893.47;;;4.74;75.05
58769;BME280;44536;47.474;19.056;2023-03-30T03:23:41;100884.97;;;4.87;72.63
58769;BME280;44536;47.474;19.056;2023-03-30T03:26:44;100903.25;;;4.90;74.47
58769;BME280;44536;47.474;19.056;2023-03-30T03:29:48;100899.28;;;5.01;73.73
58769;BME280;44536;47.474;19.056;2023-03-30T03:32:51;100901.00;;;5.02;73.70
58769;BME280;44536;47.474;19.056;2023-03-30T03:35:54;100911.56;;;5.00;73.57
58769;BME280;44536;47.474;19.056;2023-03-30T03:38:57;100905.47;;;4.99;74.81
58769;BME280;44536;47.474;19.056;2023-03-30T03:42:02;100910.06;;;4.94;72.44
58769;BME280;44536;47.474;19.056;2023-03-30T03:45:05;100908.88;;;5.02;73.31
58769;BME280;44536;47.474;19.056;2023-03-30T03:48:09;100915.50;;;5.10;69.36
58769;BME280;44536;47.474;19.056;2023-03-30T03:51:12;100905.97;;;5.08;70.02
58769;BME280;44536;47.474;19.056;2023-03-30T03:54:16;100902.63;;;5.04;70.69
58769;BME280;44536;47.474;19.056;2023-03-30T03:57:19;100905.53;;;4.98;70.79
58769;BME280;44536;47.474;19.056;2023-03-30T04:00:24;100900.75;;;4.87;70.80
58769;BME280;44536;47.474;19.056;2023-03-30T04:03:28;100891.69;;;4.74;70.96
58769;BME280;44536;47.474;19.056;2023-03-30T04:06:32;100884.22;;;4.65;72.31
58769;BME280;44536;47.474;19.056;2023-03-30T04:09:35;100881.34;;;4.51;72.96
58769;BME280;44536;47.474;19.056;2023-03-30T04:12:38;100875.06;;;4.74;68.63
58769;BME280;44536;47.474;19.056;2023-03-30T04:15:41;100879.53;;;4.72;68.89
58769;BME280;44536;47.474;19.056;2023-03-30T04:18:44;100874.34;;;4.90;67.18
58769;BME280;44536;47.474;19.056;2023-03-30T04:21:47;100873.84;;;5.01;66.76
58769;BME280;44536;47.474;19.056;2023-03-30T04:24:56;100876.50;;;5.01;66.32
58769;BME280;44536;47.474;19.056;2023-03-30T04:28:01;100869.47;;;5.02;66.59
58769;BME280;44536;47.474;19.056;2023-03-30T04:31:08;100862.09;;;5.10;66.28
58769;BME280;44536;47.474;19.056;2023-03-30T04:34:13;100864.56;;;5.13;66.00
58769;BME280;44536;47.474;19.056;2023-03-30T04:37:16;100872.00;;;5.03;66.37
58769;BME280;44536;47.474;19.056;2023-03-30T04:40:19;100883.75;;;5.15;65.38
58769;BME280;44536;47.474;19.056;2023-03-30T04:43:23;100879.34;;;5.15;67.02
58769;BME280;44536;47.474;19.056;2023-03-30T04:46:26;100875.28;;;5.27;68.18
58769;BME280;44536;47.474;19.056;2023-03-30T04:49:29;100864.56;;;5.31;68.14
58769;BME280;44536;47.474;19.056;2023-03-30T04:52:34;100867.97;;;5.33;68.82
58769;BME280;44536;47.474;19.056;2023-03-30T04:55:40;100857.66;;;5.48;65.35
58769;BME280;44536;47.474;19.056;2023-03-30T04:58:43;100858.44;;;5.50;64.72
58769;BME280;44536;47.474;19.056;2023-03-30T05:02:02;100859.94;;;5.55;64.55
58769;BME280;44536;47.474;19.056;2023-03-30T05:05:05;100863.50;;;5.54;64.47
58769;BME280;44536;47.474;19.056;2023-03-30T05:08:08;100855.41;;;5.76;63.19
58769;BME280;44536;47.474;19.056;2023-03-30T05:11:11;100855.19;;;5.81;63.07
58769;BME280;44536;47.474;19.056;2023-03-30T05:14:15;100848.06;;;5.83;62.17
58769;BME280;44536;47.474;19.056;2023-03-30T05:17:19;100863.87;;;5.83;61.73
58769;BME280;44536;47.474;19.056;2023-03-30T05:20:24;100864.44;;;5.89;61.35
58769;BME280;44536;47.474;19.056;2023-03-30T05:23:28;100864.94;;;5.97;61.37
58769;BME280;44536;47.474;19.056;2023-03-30T05:26:31;100869.34;;;5.97;61.96
58769;BME280;44536;47.474;19.056;2023-03-30T05:29:36;100871.53;;;6.06;61.06
58769;BME280;44536;47.474;19.056;2023-03-30T05:32:38;100865.34;;;6.07;61.34
58769;BME280;44536;47.474;19.056;2023-03-30T05:35:41;100869.16;;;6.19;61.17
58769;BME280;44536;47.474;19.056;2023-03-30T05:38:45;100856.41;;;6.27;60.81
58769;BME280;44536;47.474;19.056;2023-03-30T05:41:48;100846.16;;;6.22;60.69
58769;BME280;44536;47.474;19.056;2023-03-30T05:44:51;100854.91;;;6.23;60.49
58769;BME280;44536;47.474;19.056;2023-03-30T05:47:57;100847.37;;;6.15;60.52
58769;BME280;44536;47.474;19.056;2023-03-30T05:51:01;100842.97;;;6.16;61.28
58769;BME280;44536;47.474;19.056;2023-03-30T05:54:05;100846.03;;;6.24;62.20
58769;BME280;44536;47.474;19.056;2023-03-30T05:57:08;100851.25;;;6.43;60.36
58769;BME280;44536;47.474;19.056;2023-03-30T06:00:12;100844.56;;;6.36;60.33
58769;BME280;44536;47.474;19.056;2023-03-30T06:03:18;100844.56;;;6.36;60.50
58769;BME280;44536;47.474;19.056;2023-03-30T06:06:21;100857.34;;;6.60;60.00
58769;BME280;44536;47.474;19.056;2023-03-30T06:09:24;100865.62;;;6.70;59.54
58769;BME280;44536;47.474;19.056;2023-03-30T06:12:31;100864.88;;;6.68;59.78
58769;BME280;44536;47.474;19.056;2023-03-30T06:15:36;100852.62;;;6.50;59.28
58769;BME280;44536;47.474;19.056;2023-03-30T06:18:40;100848.03;;;6.71;59.37
58769;BME280;44536;47.474;19.056;2023-03-30T06:21:43;100843.16;;;6.96;58.40
58769;BME280;44536;47.474;19.056;2023-03-30T06:24:47;100832.22;;;7.67;56.92
58769;BME280;44536;47.474;19.056;2023-03-30T06:27:54;100829.59;;;7.96;55.51
58769;BME280;44536;47.474;19.056;2023-03-30T06:30:57;100837.72;;;8.23;55.17
58769;BME280;44536;47.474;19.056;2023-03-30T06:34:00;100824.25;;;8.72;54.06
58769;BME280;44536;47.474;19.056;2023-03-30T06:37:06;100833.37;;;8.52;54.25
58769;BME280;44536;47.474;19.056;2023-03-30T06:40:12;100827.09;;;8.09;55.03
58769;BME280;44536;47.474;19.056;2023-03-30T06:43:19;100811.53;;;8.05;56.16
58769;BME280;44536;47.474;19.056;2023-03-30T06:46:25;100812.50;;;8.48;55.20
58769;BME280;44536;47.474;19.056;2023-03-30T06:49:28;100813.63;;;8.14;56.00
58769;BME280;44536;47.474;19.056;2023-03-30T06:52:36;100801.06;;;8.03;56.50
58769;BME280;44536;47.474;19.056;2023-03-30T06:55:40;100807.28;;;7.72;57.55
58769;BME280;44536;47.474;19.056;2023-03-30T06:58:44;100824.19;;;7.84;57.23
58769;BME280;44536;47.474;19.056;2023-03-30T07:01:47;100826.91;;;7.82;57.42
58769;BME280;44536;47.474;19.056;2023-03-30T07:04:51;100820.22;;;7.61;58.24
58769;BME280;44536;47.474;19.056;2023-03-30T07:07:54;100820.81;;;7.35;59.31
58769;BME280;44536;47.474;19.056;2023-03-30T07:10:56;100818.88;;;7.22;60.60
58769;BME280;44536;47.474;19.056;2023-03-30T07:13:59;100822.25;;;7.40;59.87
58769;BME280;44536;47.474;19.056;2023-03-30T07:17:02;100819.28;;;7.46;60.22
58769;BME280;44536;47.474;19.056;2023-03-30T07:20:06;100810.59;;;7.76;59.89
58769;BME280;44536;47.474;19.056;2023-03-30T07:23:11;100826.09;;;7.66;59.30
58769;BME280;44536;47.474;19.056;2023-03-30T07:26:13;100814.66;;;8.11;59.00
58769;BME280;44536;47.474;19.056;2023-03-30T07:29:18;100815.16;;;8.32;57.77
58769;BME280;44536;47.474;19.056;2023-03-30T07:32:20;100820.22;;;8.37;57.15
58769;BME280;44536;47.474;19.056;2023-03-30T07:35:24;100817.56;;;8.37;56.99
58769;BME280;44536;47.474;19.056;2023-03-30T07:38:26;100825.28;;;8.70;57.05
58769;BME280;44536;47.474;19.056;2023-03-30T07:41:29;100823.47;;;9.13;56.08
58769;BME280;44536;47.474;19.056;2023-03-30T07:44:32;100821.59;;;9.42;55.76
58769;BME280;44536;47.474;19.056;2023-03-30T07:47:35;100821.78;;;8.98;55.44
58769;BME280;44536;47.474;19.056;2023-03-30T07:50:38;100818.19;;;9.13;55.66
58769;BME280;44536;47.474;19.056;2023-03-30T07:53:41;100815.41;;;9.28;55.01
58769;BME280;44536;47.474;19.056;2023-03-30T07:56:46;100827.72;;;8.87;57.17
58769;BME280;44536;47.474;19.056;2023-03-30T07:59:54;100821.81;;;9.39;55.51
58769;BME280;44536;47.474;19.056;2023-03-30T08:02:58;100829.69;;;10.34;53.90
58769;BME280;44536;47.474;19.056;2023-03-30T08:06:04;100821.09;;;10.30;53.91
58769;BME280;44536;47.474;19.056;2023-03-30T08:09:08;100807.38;;;11.12;53.87
58769;BME280;44536;47.474;19.056;2023-03-30T08:12:11;100810.59;;;10.54;53.56
58769;BME280;44536;47.474;19.056;2023-03-30T08:15:13;100802.66;;;10.54;53.12
58769;BME280;44536;47.474;19.056;2023-03-30T08:18:15;100812.72;;;10.23;53.47
58769;BME280;44536;47.474;19.056;2023-03-30T08:21:18;100810.91;;;9.97;54.60
58769;BME280;44536;47.474;19.056;2023-03-30T08:24:20;100800.09;;;9.87;55.73
58769;BME280;44536;47.474;19.056;2023-03-30T08:27:23;100801.16;;;9.98;55.06
58769;BME280;44536;47.474;19.056;2023-03-30T08:30:26;100801.72;;;10.80;54.36
58769;BME280;44536;47.474;19.056;2023-03-30T08:33:29;100800.22;;;10.64;54.57
58769;BME280;44536;47.474;19.056;2023-03-30T08:36:32;100808.91;;;10.40;55.14
58769;BME280;44536;47.474;19.056;2023-03-30T08:39:35;100799.47;;;10.49;55.42
58769;BME280;44536;47.474;19.056;2023-03-30T08:45:53;100799.19;;;11.15;52.88
58769;BME280;44536;47.474;19.056;2023-03-30T08:49:09;100809.13;;;10.50;55.31
58769;BME280;44536;47.474;19.056;2023-03-30T08:52:22;100798.06;;;10.94;55.53
58769;BME280;44536;47.474;19.056;2023-03-30T08:55:41;100798.75;;;11.58;53.52
58769;BME280;44536;47.474;19.056;2023-03-30T09:02:15;100794.69;;;11.41;53.02
58769;BME280;44536;47.474;19.056;2023-03-30T09:05:23;100781.81;;;10.99;54.67
58769;BME280;44536;47.474;19.056;2023-03-30T09:08:29;100784.53;;;11.46;53.63
58769;BME280;44536;47.474;19.056;2023-03-30T09:11:35;100793.25;;;11.85;52.29
58769;BME280;44536;47.474;19.056;2023-03-30T09:14:43;100774.56;;;11.74;52.59
58769;BME280;44536;47.474;19.056;2023-03-30T09:17:54;100768.91;;;11.54;53.12
58769;BME280;44536;47.474;19.056;2023-03-30T09:21:07;100770.38;;;12.17;51.89
58769;BME280;44536;47.474;19.056;2023-03-30T09:24:17;100773.94;;;12.51;51.74
58769;BME280;44536;47.474;19.056;2023-03-30T09:27:41;100776.75;;;12.95;50.72
58769;BME280;44536;47.474;19.056;2023-03-30T09:30:57;100770.06;;;12.33;51.57
58769;BME280;44536;47.474;19.056;2023-03-30T09:34:39;100761.94;;;11.77;53.35
58769;BME280;44536;47.474;19.056;2023-03-30T09:37:45;100756.53;;;11.66;54.07
58769;BME280;44536;47.474;19.056;2023-03-30T09:44:25;100751.31;;;11.77;54.98
58769;BME280;44536;47.474;19.056;2023-03-30T09:47:33;100737.50;;;12.07;54.94
58769;BME280;44536;47.474;19.056;2023-03-30T09:50:44;100728.34;;;12.22;55.58
58769;BME280;44536;47.474;19.056;2023-03-30T09:53:50;100723.94;;;11.99;53.89
58769;BME280;44536;47.474;19.056;2023-03-30T09:56:54;100730.78;;;12.25;54.56
58769;BME280;44536;47.474;19.056;2023-03-30T09:59:59;100729.94;;;12.92;51.51
58769;BME280;44536;47.474;19.056;2023-03-30T10:03:03;100732.84;;;12.67;52.35
58769;BME280;44536;47.474;19.056;2023-03-30T10:09:17;100712.31;;;13.45;50.95
58769;BME280;44536;47.474;19.056;2023-03-30T10:12:24;100710.47;;;12.36;52.69
58769;BME280;44536;47.474;19.056;2023-03-30T10:15:27;100708.66;;;12.92;51.88
58769;BME280;44536;47.474;19.056;2023-03-30T10:18:39;100705.84;;;13.80;49.68
58769;BME280;44536;47.474;19.056;2023-03-30T10:21:42;100711.59;;;13.32;50.06
58769;BME280;44536;47.474;19.056;2023-03-30T10:24:53;100710.19;;;13.17;51.69
58769;BME280;44536;47.474;19.056;2023-03-30T10:28:00;100706.19;;;13.22;51.50
58769;BME280;44536;47.474;19.056;2023-03-30T10:31:11;100698.75;;;12.83;52.22
58769;BME280;44536;47.474;19.056;2023-03-30T10:34:21;100698.34;;;12.09;53.92
58769;BME280;44536;47.474;19.056;2023-03-30T10:37:34;100692.47;;;12.73;53.00
58769;BME280;44536;47.474;19.056;2023-03-30T10:40:40;100679.53;;;12.35;54.16
58769;BME280;44536;47.474;19.056;2023-03-30T10:43:43;100672.13;;;12.16;54.88
58769;BME280;44536;47.474;19.056;2023-03-30T10:46:47;100664.75;;;12.75;54.52
58769;BME280;44536;47.474;19.056;2023-03-30T10:59:45;100650.56;;;13.61;51.02
58769;BME280;44536;47.474;19.056;2023-03-30T11:02:58;100643.94;;;14.48;49.07
58769;BME280;44536;47.474;19.056;2023-03-30T11:06:11;100637.75;;;15.17;47.23
58769;BME280;44536;47.474;19.056;2023-03-30T11:09:18;100633.97;;;14.50;48.78
58769;BME280;44536;47.474;19.056;2023-03-30T11:12:25;100642.59;;;14.12;48.87
58769;BME280;44536;47.474;19.056;2023-03-30T11:15:43;100641.25;;;14.88;48.01
58769;BME280;44536;47.474;19.056;2023-03-30T11:22:03;100630.28;;;14.42;50.50
58769;BME280;44536;47.474;19.056;2023-03-30T11:25:23;100638.88;;;14.24;49.79
58769;BME280;44536;47.474;19.056;2023-03-30T11:38:40;100626.22;;;14.17;50.32
58769;BME280;44536;47.474;19.056;2023-03-30T11:49:30;100609.38;;;14.56;49.95
58769;BME280;44536;47.474;19.056;2023-03-30T11:59:06;100593.09;;;14.60;50.66
58769;BME280;44536;47.474;19.056;2023-03-30T12:02:29;100590.34;;;15.67;47.84
58769;BME280;44536;47.474;19.056;2023-03-30T12:05:37;100575.72;;;17.08;44.73
58769;BME280;44536;47.474;19.056;2023-03-30T12:08:50;100570.44;;;18.46;41.98
58769;BME280;44536;47.474;19.056;2023-03-30T12:18:57;100542.81;;;16.08;46.35
58769;BME280;44536;47.474;19.056;2023-03-30T12:22:12;100542.63;;;17.35;44.13
58769;BME280;44536;47.474;19.056;2023-03-30T12:28:46;100523.81;;;17.79;43.68
58769;BME280;44536;47.474;19.056;2023-03-30T12:34:59;100523.78;;;15.74;47.92
58769;BME280;44536;47.474;19.056;2023-03-30T12:38:04;100510.59;;;16.72;46.96
58769;BME280;44536;47.474;19.056;2023-03-30T12:41:09;100510.47;;;16.19;47.70
58769;BME280;44536;47.474;19.056;2023-03-30T12:44:34;100504.87;;;15.38;49.92
58769;BME280;44536;47.474;19.056;2023-03-30T12:51:05;100494.03;;;15.86;50.36
58769;BME280;44536;47.474;19.056;2023-03-30T12:57:59;100475.47;;;16.12;48.88
58769;BME280;44536;47.474;19.056;2023-03-30T13:04:45;100470.00;;;15.77;49.31
58769;BME280;44536;47.474;19.056;2023-03-30T13:07:51;100466.34;;;15.41;49.93
58769;BME280;44536;47.474;19.056;2023-03-30T13:14:26;100467.00;;;15.52;50.86
58769;BME280;44536;47.474;19.056;2023-03-30T13:18:00;100466.09;;;15.71;51.00
58769;BME280;44536;47.474;19.056;2023-03-30T13:21:15;100461.41;;;15.83;50.09
58769;BME280;44536;47.474;19.056;2023-03-30T13:27:25;100455.38;;;16.08;49.28
58769;BME280;44536;47.474;19.056;2023-03-30T13:30:29;100450.34;;;15.68;51.62
58769;BME280;44536;47.474;19.056;2023-03-30T13:33:35;100455.13;;;15.18;51.80
58769;BME280;44536;47.474;19.056;2023-03-30T13:40:24;100446.81;;;15.31;51.04
58769;BME280;44536;47.474;19.056;2023-03-30T13:44:25;100449.09;;;15.16;51.61
58769;BME280;44536;47.474;19.056;2023-03-30T13:47:53;100438.97;;;15.10;51.99
58769;BME280;44536;47.474;19.056;2023-03-30T13:51:01;100433.87;;;15.26;52.23
58769;BME280;44536;47.474;19.056;2023-03-30T13:54:31;100433.81;;;15.55;51.40
58769;BME280;44536;47.474;19.056;2023-03-30T13:57:37;100421.75;;;15.41;51.77
58769;BME280;44536;47.474;19.056;2023-03-30T14:00:45;100422.59;;;15.42;51.68
58769;BME280;44536;47.474;19.056;2023-03-30T14:04:11;100413.44;;;15.07;52.78
58769;BME280;44536;47.474;19.056;2023-03-30T14:07:18;100400.31;;;15.61;51.82
58769;BME280;44536;47.474;19.056;2023-03-30T14:10:21;100392.25;;;15.70;51.57
58769;BME280;44536;47.474;19.056;2023-03-30T14:13:23;100390.66;;;15.40;52.13
58769;BME280;44536;47.474;19.056;2023-03-30T14:16:31;100376.88;;;15.45;52.72
58769;BME280;44536;47.474;19.056;2023-03-30T14:19:35;100372.06;;;15.48;52.31
58769;BME280;44536;47.474;19.056;2023-03-30T14:22:43;100370.34;;;15.20;53.59
58769;BME280;44536;47.474;19.056;2023-03-30T14:25:46;100373.72;;;15.22;54.00
58769;BME280;44536;47.474;19.056;2023-03-30T14:28:56;100362.47;;;15.18;53.51
58769;BME280;44536;47.474;19.056;2023-03-30T14:32:01;100357.72;;;15.12;53.53
58769;BME280;44536;47.474;19.056;2023-03-30T14:35:07;100349.09;;;14.91;54.35
58769;BME280;44536;47.474;19.056;2023-03-30T14:38:16;100333.34;;;14.98;54.30
58769;BME280;44536;47.474;19.056;2023-03-30T14:41:23;100327.88;;;14.89;54.54
58769;BME280;44536;47.474;19.056;2023-03-30T14:44:28;100322.69;;;14.88;54.67
58769;BME280;44536;47.474;19.056;2023-03-30T14:47:31;100311.75;;;14.81;55.08
58769;BME280;44536;47.474;19.056;2023-03-30T14:50:35;100292.41;;;15.07;54.20
58769;BME280;44536;47.474;19.056;2023-03-30T14:53:38;100289.06;;;15.05;54.42
58769;BME280;44536;47.474;19.056;2023-03-30T14:56:43;100295.97;;;14.98;55.00
58769;BME280;44536;47.474;19.056;2023-03-30T14:59:50;100286.12;;;14.98;54.91
58769;BME280;44536;47.474;19.056;2023-03-30T15:02:56;100275.63;;;15.14;54.38
58769;BME280;44536;47.474;19.056;2023-03-30T15:06:04;100267.47;;;14.88;54.80
58769;BME280;44536;47.474;19.056;2023-03-30T15:09:16;100268.47;;;14.78;55.51
58769;BME280;44536;47.474;19.056;2023-03-30T15:12:25;100265.19;;;14.94;54.99
58769;BME280;44536;47.474;19.056;2023-03-30T15:15:30;100255.72;;;14.72;55.83
58769;BME280;44536;47.474;19.056;2023-03-30T15:18:35;100255.06;;;14.97;54.91
58769;BME280;44536;47.474;19.056;2023-03-30T15:21:37;100245.13;;;14.89;55.16
58769;BME280;44536;47.474;19.056;2023-03-30T15:24:41;100239.84;;;14.70;55.88
58769;BME280;44536;47.474;19.056;2023-03-30T15:28:04;100230.44;;;14.66;56.34
58769;BME280;44536;47.474;19.056;2023-03-30T15:31:09;100236.22;;;14.62;56.82
58769;BME280;44536;47.474;19.056;2023-03-30T15:34:16;100250.19;;;14.46;57.46
58769;BME280;44536;47.474;19.056;2023-03-30T15:37:22;100251.16;;;14.54;57.26
58769;BME280;44536;47.474;19.056;2023-03-30T15:40:27;100264.66;;;14.43;58.48
58769;BME280;44536;47.474;19.056;2023-03-30T15:43:30;100276.44;;;14.31;58.84
58769;BME280;44536;47.474;19.056;2023-03-30T15:46:35;100279.66;;;14.54;58.18
58769;BME280;44536;47.474;19.056;2023-03-30T15:49:44;100287.63;;;14.64;57.84
58769;BME280;44536;47.474;19.056;2023-03-30T15:52:58;100291.84;;;14.56;58.05
58769;BME280;44536;47.474;19.056;2023-03-30T15:56:03;100301.72;;;14.46;59.32
58769;BME280;44536;47.474;19.056;2023-03-30T15:59:13;100301.16;;;14.23;61.87
58769;BME280;44536;47.474;19.056;2023-03-30T16:02:23;100308.44;;;14.21;61.51
58769;BME280;44536;47.474;19.056;2023-03-30T16:05:31;100293.69;;;14.37;59.78
58769;BME280;44536;47.474;19.056;2023-03-30T16:08:35;100283.47;;;14.13;63.93
58769;BME280;44536;47.474;19.056;2023-03-30T16:11:44;100271.56;;;13.98;63.35
58769;BME280;44536;47.474;19.056;2023-03-30T16:14:47;100273.94;;;13.91;63.62
58769;BME280;44536;47.474;19.056;2023-03-30T16:17:50;100275.41;;;13.36;70.56
58769;BME280;44536;47.474;19.056;2023-03-30T16:20:52;100273.88;;;13.03;73.78
58769;BME280;44536;47.474;19.056;2023-03-30T16:23:55;100270.78;;;12.67;83.58
58769;BME280;44536;47.474;19.056;2023-03-30T16:26:57;100264.00;;;12.12;89.92
58769;BME280;44536;47.474;19.056;2023-03-30T16:29:59;100267.06;;;11.75;94.13
58769;BME280;44536;47.474;19.056;2023-03-30T16:33:03;100244.91;;;11.54;100.00
58769;BME280;44536;47.474;19.056;2023-03-30T16:36:06;100243.91;;;11.66;100.00
58769;BME280;44536;47.474;19.056;2023-03-30T16:39:20;100229.94;;;11.53;99.03
58769;BME280;44536;47.474;19.056;2023-03-30T16:42:24;100232.81;;;11.07;100.00
58769;BME280;44536;47.474;19.056;2023-03-30T16:45:28;100246.09;;;11.07;100.00
58769;BME280;44536;47.474;19.056;2023-03-30T16:48:31;100253.09;;;11.08;100.00
58769;BME280;44536;47.474;19.056;2023-03-30T16:51:33;100259.25;;;11.08;100.00
58769;BME280;44536;47.474;19.056;2023-03-30T16:54:36;100262.50;;;11.01;100.00
58769;BME280;44536;47.474;19.056;2023-03-30T16:57:38;100257.81;;;10.93;100.00
58769;BME280;44536;47.474;19.056;2023-03-30T17:00:46;100263.25;;;10.91;100.00
58769;BME280;44536;47.474;19.056;2023-03-30T17:03:49;100266.03;;;10.90;100.00
58769;BME280;44536;47.474;19.056;2023-03-30T17:06:52;100259.28;;;10.86;100.00
58769;BME280;44536;47.474;19.056;2023-03-30T17:09:56;100262.16;;;10.83;100.00
58769;BME280;44536;47.474;19.056;2023-03-30T17:12:59;100259.62;;;10.81;100.00
58769;BME280;44536;47.474;19.056;2023-03-30T17:16:01;100245.78;;;10.78;100.00
58769;BME280;44536;47.474;19.056;2023-03-30T17:19:04;100244.44;;;10.72;100.00
58769;BME280;44536;47.474;19.056;2023-03-30T17:22:06;100240.72;;;10.75;100.00
58769;BME280;44536;47.474;19.056;2023-03-30T17:25:09;100239.50;;;10.68;100.00
58769;BME280;44536;47.474;19.056;2023-03-30T17:28:19;100242.16;;;10.68;100.00
58769;BME280;44536;47.474;19.056;2023-03-30T17:31:23;100242.88;;;10.70;100.00
58769;BME280;44536;47.474;19.056;2023-03-30T17:34:25;100246.38;;;10.70;100.00
58769;BME280;44536;47.474;19.056;2023-03-30T17:37:28;100236.25;;;10.64;100.00
58769;BME280;44536;47.474;19.056;2023-03-30T17:40:31;100233.94;;;10.59;100.00
58769;BME280;44536;47.474;19.056;2023-03-30T17:43:33;100226.22;;;10.56;100.00
58769;BME280;44536;47.474;19.056;2023-03-30T17:46:36;100225.25;;;10.57;100.00
58769;BME280;44536;47.474;19.056;2023-03-30T17:49:39;100210.31;;;10.68;100.00
58769;BME280;44536;47.474;19.056;2023-03-30T17:52:42;100207.31;;;10.72;100.00
58769;BME280;44536;47.474;19.056;2023-03-30T17:55:46;100221.62;;;10.47;100.00